Time;durP1;ratioP1;P1;durP2;ratioP2;P2;SDS_P1;SDS_P2;PMS_P1;PMS_P2;Temp;Humidity;BMP_temperature;BMP_pressure;BME280_temperature;BME280_humidity;BME280_pressure;Samples;Min_cycle;Max_cycle;Signal;HPM_P1;HPM_P2
2022/05/02 00:02:10;;;;;;;35.83;22.33;;;7.60;99.90;;;;;;5091969;28;20204;-59
2022/05/02 00:04:40;;;;;;;39.60;23.27;;;7.50;99.90;;;;;;5083670;28;20629;-58
2022/05/02 00:07:10;;;;;;;40.57;23.53;;;7.50;99.90;;;;;;5088004;28;20252;-58
2022/05/02 00:09:40;;;;;;;36.03;23.00;;;7.40;99.90;;;;;;5087520;28;20205;-58
2022/05/02 00:12:09;;;;;;;37.40;24.00;;;7.40;99.90;;;;;;5086178;28;20198;-59
2022/05/02 00:14:38;;;;;;;39.97;24.00;;;7.40;99.90;;;;;;5092700;28;20194;-59
2022/05/02 00:17:06;;;;;;;39.33;23.57;;;7.40;99.90;;;;;;5085556;28;20264;-58
2022/05/02 00:19:35;;;;;;;42.30;24.07;;;7.30;99.90;;;;;;5090682;28;20205;-58
2022/05/02 00:22:04;;;;;;;37.00;22.70;;;7.30;99.90;;;;;;5094410;28;20198;-58
2022/05/02 00:24:34;;;;;;;33.53;21.77;;;7.30;99.90;;;;;;5087860;28;20218;-59
2022/05/02 00:27:02;;;;;;;39.57;24.77;;;7.20;99.90;;;;;;5087106;28;20272;-59
2022/05/02 00:29:30;;;;;;;40.53;24.67;;;7.10;99.90;;;;;;5093307;28;20202;-59
2022/05/02 00:31:59;;;;;;;41.57;24.30;;;7.10;99.90;;;;;;5082106;28;20292;-58
2022/05/02 00:34:27;;;;;;;46.17;25.53;;;7.10;99.90;;;;;;5089369;28;20196;-58
2022/05/02 00:36:55;;;;;;;42.53;25.93;;;7.10;99.90;;;;;;5086982;28;20200;-59
2022/05/02 00:39:24;;;;;;;43.83;25.77;;;7.00;99.90;;;;;;5089496;28;20199;-59
2022/05/02 00:41:53;;;;;;;45.47;25.93;;;7.00;99.90;;;;;;5095404;27;20203;-58
2022/05/02 00:44:22;;;;;;;44.27;26.30;;;7.10;99.90;;;;;;5092339;28;20268;-58
2022/05/02 00:46:51;;;;;;;46.60;27.33;;;7.10;99.90;;;;;;5091145;28;20737;-58
2022/05/02 00:49:19;;;;;;;45.73;27.03;;;7.00;99.90;;;;;;5086713;28;20196;-59
2022/05/02 00:51:47;;;;;;;42.87;25.47;;;7.00;99.90;;;;;;5092262;28;20192;-58
2022/05/02 00:54:16;;;;;;;46.10;26.70;;;6.90;99.90;;;;;;5094927;28;20199;-58
2022/05/02 00:56:44;;;;;;;43.57;25.50;;;6.90;99.90;;;;;;5092296;28;20179;-58
2022/05/02 00:59:16;;;;;;;41.83;24.00;;;6.90;99.90;;;;;;5095546;28;20250;-59
2022/05/02 01:01:46;;;;;;;38.57;24.73;;;6.90;99.90;;;;;;5085805;28;20197;-58
2022/05/02 01:04:14;;;;;;;41.23;23.80;;;6.80;99.90;;;;;;5092172;28;20233;-58
2022/05/02 01:09:25;;;;;;;41.53;25.80;;;6.70;99.90;;;;;;5086942;28;20231;-58
2022/05/02 01:11:55;;;;;;;40.87;24.50;;;6.70;99.90;;;;;;5090400;28;20202;-58
2022/05/02 01:14:24;;;;;;;45.57;27.10;;;6.70;99.90;;;;;;5121190;27;20216;-58
2022/05/02 01:16:53;;;;;;;50.70;28.00;;;6.60;99.90;;;;;;5094136;28;20202;-59
2022/05/02 01:19:22;;;;;;;50.37;28.53;;;6.60;99.90;;;;;;5090214;28;20195;-59
2022/05/02 01:21:51;;;;;;;54.03;30.83;;;6.60;99.90;;;;;;5087664;28;20198;-58
2022/05/02 01:24:20;;;;;;;46.03;28.10;;;6.60;99.90;;;;;;5086819;28;20192;-59
2022/05/02 01:26:48;;;;;;;49.50;28.17;;;6.60;99.90;;;;;;5083751;28;20234;-58
2022/05/02 01:29:16;;;;;;;42.67;26.57;;;6.60;99.90;;;;;;5087923;28;20187;-58
2022/05/02 01:31:45;;;;;;;48.53;28.17;;;6.50;99.90;;;;;;5116107;27;20191;-59
2022/05/02 01:34:13;;;;;;;50.20;29.40;;;6.50;99.90;;;;;;5089082;28;20188;-59
2022/05/02 01:36:43;;;;;;;51.10;28.90;;;6.50;99.90;;;;;;5087193;28;20196;-58
2022/05/02 01:39:13;;;;;;;48.40;28.97;;;6.50;99.90;;;;;;5091616;28;20199;-58
2022/05/02 01:41:41;;;;;;;53.23;29.30;;;6.50;99.90;;;;;;5093701;28;20200;-58
2022/05/02 01:44:09;;;;;;;48.30;28.87;;;6.50;99.90;;;;;;5094028;28;20594;-58
2022/05/02 01:46:39;;;;;;;48.60;28.70;;;6.40;99.90;;;;;;5093247;28;20767;-58
2022/05/02 01:49:07;;;;;;;50.73;28.83;;;6.40;99.90;;;;;;5082044;28;20262;-58
2022/05/02 01:51:36;;;;;;;55.13;29.73;;;6.30;99.90;;;;;;5089374;28;20694;-58
2022/05/02 01:54:05;;;;;;;50.43;28.97;;;6.30;99.90;;;;;;5088915;28;20214;-57
2022/05/02 01:56:35;;;;;;;53.57;29.63;;;6.30;99.90;;;;;;5089992;28;20206;-58
2022/05/02 01:59:03;;;;;;;51.70;29.00;;;6.30;99.90;;;;;;5089502;28;20282;-58
2022/05/02 02:01:33;;;;;;;47.73;29.63;;;6.30;99.90;;;;;;5123566;27;20294;-58
2022/05/02 02:05:48;;;;;;;47.40;28.70;;;6.20;99.90;;;;;;5122299;27;20198;-59
2022/05/02 02:06:52;;;;;;;50.63;29.30;;;6.20;99.90;;;;;;5110881;27;20226;-58
2022/05/02 02:09:20;;;;;;;52.53;30.87;;;6.20;99.90;;;;;;5087341;28;20424;-58
2022/05/02 02:11:51;;;;;;;51.47;30.80;;;6.10;99.90;;;;;;5084207;28;20221;-58
2022/05/02 02:14:19;;;;;;;53.67;30.60;;;6.10;99.90;;;;;;5081901;28;20195;-58
2022/05/02 02:16:48;;;;;;;53.87;29.80;;;6.10;99.90;;;;;;5101238;27;20191;-58
2022/05/02 02:19:16;;;;;;;50.77;29.23;;;6.10;99.90;;;;;;5090506;28;20271;-58
2022/05/02 02:21:44;;;;;;;53.87;29.47;;;6.00;99.90;;;;;;5088956;28;20192;-57
2022/05/02 02:24:13;;;;;;;52.90;30.40;;;5.90;99.90;;;;;;5099411;28;20198;-58
2022/05/02 02:26:41;;;;;;;56.30;31.83;;;5.90;99.90;;;;;;5088157;28;20307;-58
2022/05/02 02:29:11;;;;;;;53.43;30.20;;;5.90;99.90;;;;;;5088187;28;20231;-58
2022/05/02 02:31:39;;;;;;;58.03;31.97;;;5.90;99.90;;;;;;5086696;28;20227;-58
2022/05/02 02:34:08;;;;;;;54.97;31.77;;;5.80;99.90;;;;;;5083306;28;20286;-58
2022/05/02 02:36:38;;;;;;;59.23;32.03;;;5.90;99.90;;;;;;5081964;28;20223;-58
2022/05/02 02:39:07;;;;;;;55.93;31.83;;;5.90;99.90;;;;;;5088779;28;20260;-58
2022/05/02 02:41:35;;;;;;;56.20;32.37;;;5.90;99.90;;;;;;5085074;28;20258;-57
2022/05/02 02:44:04;;;;;;;54.63;31.40;;;5.80;99.90;;;;;;5087347;28;20202;-58
2022/05/02 02:46:33;;;;;;;56.20;32.63;;;5.80;99.90;;;;;;5088617;28;20606;-58
2022/05/02 02:49:02;;;;;;;58.77;32.90;;;5.70;99.90;;;;;;5115832;27;20254;-58
2022/05/02 02:51:30;;;;;;;60.93;33.93;;;5.70;99.90;;;;;;5087952;28;20648;-58
2022/05/02 02:53:59;;;;;;;59.83;32.57;;;5.70;99.90;;;;;;5087802;28;20192;-58
2022/05/02 02:56:27;;;;;;;60.63;33.10;;;5.60;99.90;;;;;;5081084;28;20253;-59
2022/05/02 02:58:56;;;;;;;61.07;33.37;;;5.60;99.90;;;;;;5085033;28;20188;-58
2022/05/02 03:01:25;;;;;;;61.03;33.37;;;5.50;99.90;;;;;;5087784;28;20243;-58
2022/05/02 03:03:55;;;;;;;62.70;34.03;;;5.50;99.90;;;;;;5086180;28;20203;-59
2022/05/02 03:06:23;;;;;;;62.87;34.27;;;5.50;99.90;;;;;;5090760;28;20842;-58
2022/05/02 03:08:51;;;;;;;62.07;34.30;;;5.50;99.90;;;;;;5082493;28;20212;-58
2022/05/02 03:11:19;;;;;;;66.07;36.77;;;5.50;99.90;;;;;;5099077;27;20248;-59
2022/05/02 03:13:48;;;;;;;70.47;40.63;;;5.50;99.90;;;;;;5091125;28;20232;-59
2022/05/02 03:16:16;;;;;;;73.10;38.97;;;5.50;99.90;;;;;;5089924;28;20202;-57
2022/05/02 03:18:44;;;;;;;75.20;41.30;;;5.50;99.90;;;;;;5088288;28;20199;-58
2022/05/02 03:21:14;;;;;;;72.80;40.37;;;5.50;99.90;;;;;;5083576;28;20203;-59
2022/05/02 03:23:42;;;;;;;71.90;38.70;;;5.50;99.90;;;;;;5085741;28;20200;-58
2022/05/02 03:26:11;;;;;;;63.37;34.17;;;5.50;99.90;;;;;;5088925;28;20199;-58
2022/05/02 03:28:39;;;;;;;63.40;35.17;;;5.40;99.90;;;;;;5088560;28;20219;-58
2022/05/02 03:31:08;;;;;;;61.83;33.40;;;5.40;99.90;;;;;;5088301;28;20195;-59
2022/05/02 03:33:36;;;;;;;64.10;35.00;;;5.30;99.90;;;;;;5084734;28;20200;-58
2022/05/02 03:36:05;;;;;;;61.57;34.93;;;5.30;99.90;;;;;;5089642;28;20586;-58
2022/05/02 03:38:35;;;;;;;61.67;34.37;;;5.20;99.90;;;;;;5088215;28;20177;-59
2022/05/02 03:41:03;;;;;;;63.70;34.50;;;5.20;99.90;;;;;;5087932;28;20555;-58
2022/05/02 03:43:34;;;;;;;62.23;35.40;;;5.10;99.90;;;;;;5121199;27;20203;-58
2022/05/02 03:46:02;;;;;;;64.17;35.87;;;5.10;99.90;;;;;;5086290;28;20243;-58
2022/05/02 03:48:30;;;;;;;66.23;36.67;;;5.10;99.90;;;;;;5088399;28;20216;-59
2022/05/02 03:50:59;;;;;;;64.47;35.87;;;5.10;99.90;;;;;;5090158;28;20203;-58
2022/05/02 03:53:27;;;;;;;62.87;35.50;;;5.10;99.90;;;;;;5089716;28;20239;-58
2022/05/02 03:55:57;;;;;;;68.57;35.53;;;5.10;99.90;;;;;;5088973;28;20287;-58
2022/05/02 03:58:25;;;;;;;62.27;34.90;;;5.10;99.90;;;;;;5089039;28;20659;-58
2022/05/02 04:00:54;;;;;;;65.07;35.27;;;5.10;99.90;;;;;;5088494;28;20209;-59
2022/05/02 04:03:22;;;;;;;63.67;35.43;;;5.10;99.90;;;;;;5084026;28;20764;-58
2022/05/02 04:05:51;;;;;;;66.00;34.00;;;5.10;99.90;;;;;;5088027;28;20225;-58
2022/05/02 04:08:19;;;;;;;69.50;35.47;;;5.00;99.90;;;;;;5088373;28;20684;-58
2022/05/02 04:10:53;;;;;;;68.60;37.30;;;5.00;99.90;;;;;;5085505;28;20588;-58
2022/05/02 04:13:23;;;;;;;68.20;37.20;;;5.00;99.90;;;;;;5088315;28;20203;-58
2022/05/02 04:15:51;;;;;;;70.97;36.77;;;5.00;99.90;;;;;;5084516;28;20208;-58
2022/05/02 04:18:20;;;;;;;69.27;37.27;;;5.00;99.90;;;;;;5100304;28;20528;-58
2022/05/02 04:20:48;;;;;;;68.77;36.93;;;5.00;99.90;;;;;;5097605;28;20651;-58
2022/05/02 04:23:16;;;;;;;67.47;36.93;;;5.00;99.90;;;;;;5093341;28;20274;-58
2022/05/02 04:25:45;;;;;;;65.10;35.43;;;5.00;99.90;;;;;;5091729;28;20195;-58
2022/05/02 04:28:13;;;;;;;69.43;37.20;;;5.00;99.90;;;;;;5085034;28;22034;-59
2022/05/02 04:30:43;;;;;;;73.67;38.67;;;5.10;99.90;;;;;;5092434;28;20691;-58
2022/05/02 04:33:12;;;;;;;76.17;38.77;;;5.10;99.90;;;;;;5088154;28;20200;-58
2022/05/02 04:35:40;;;;;;;69.10;37.37;;;5.10;99.90;;;;;;5092680;28;20210;-58
2022/05/02 04:38:09;;;;;;;73.70;37.27;;;5.10;99.90;;;;;;5094899;28;20568;-58
2022/05/02 04:40:37;;;;;;;63.37;36.13;;;5.10;99.90;;;;;;5091765;28;20891;-58
2022/05/02 04:43:06;;;;;;;64.23;36.33;;;5.10;99.90;;;;;;5091598;28;20551;-58
2022/05/02 04:45:34;;;;;;;70.63;36.67;;;5.10;99.90;;;;;;5073378;28;20187;-58
2022/05/02 04:48:04;;;;;;;69.27;37.13;;;5.20;99.90;;;;;;5128616;27;20772;-58
2022/05/02 04:50:33;;;;;;;68.57;37.47;;;5.20;99.90;;;;;;5087685;28;20275;-57
2022/05/02 04:53:01;;;;;;;65.63;36.17;;;5.30;99.90;;;;;;5092629;28;20238;-58
2022/05/02 04:55:30;;;;;;;67.50;35.73;;;5.30;99.90;;;;;;5093589;28;20660;-58
2022/05/02 04:57:58;;;;;;;67.17;37.67;;;5.40;99.90;;;;;;5091291;28;20179;-58
2022/05/02 05:00:27;;;;;;;75.20;41.80;;;5.40;99.90;;;;;;5083063;28;20283;-58
2022/05/02 05:02:55;;;;;;;79.27;42.80;;;5.40;99.90;;;;;;5087678;27;20203;-58
2022/05/02 05:05:30;;;;;;;81.27;44.03;;;5.50;99.90;;;;;;5082308;28;20204;-58
2022/05/02 05:07:58;;;;;;;80.13;42.17;;;5.50;99.90;;;;;;5092403;28;20222;-58
2022/05/02 05:10:27;;;;;;;81.87;44.00;;;5.60;99.90;;;;;;5090091;28;20203;-58
2022/05/02 05:13:04;;;;;;;82.47;41.93;;;5.70;99.90;;;;;;5082865;28;20282;-59
2022/05/02 05:19:13;;;;;;;78.57;40.93;;;5.90;99.90;;;;;;5088298;28;20203;-58
2022/05/02 05:21:49;;;;;;;82.83;42.93;;;6.00;99.90;;;;;;5089951;28;20668;-59
2022/05/02 05:24:56;;;;;;;79.27;42.23;;;6.10;99.90;;;;;;5089514;28;20282;-59
2022/05/02 05:27:45;;;;;;;75.90;41.53;;;6.30;99.90;;;;;;5093033;28;20222;-59
2022/05/02 05:30:13;;;;;;;75.13;42.43;;;6.40;99.90;;;;;;5087569;28;20292;-58
2022/05/02 05:32:47;;;;;;;82.10;44.10;;;6.50;99.90;;;;;;5093424;28;20715;-58
2022/05/02 05:35:23;;;;;;;80.70;43.37;;;6.70;99.90;;;;;;5088798;28;20541;-58
2022/05/02 05:38:12;;;;;;;78.80;42.70;;;6.80;99.90;;;;;;5088182;28;20541;-58
2022/05/02 05:40:43;;;;;;;75.17;41.63;;;7.00;99.90;;;;;;5091447;28;20194;-58
2022/05/02 05:43:24;;;;;;;78.27;41.07;;;7.20;99.90;;;;;;5090767;28;20203;-59
2022/05/02 05:46:10;;;;;;;71.23;40.53;;;7.30;99.90;;;;;;5089641;28;20266;-58
2022/05/02 05:48:51;;;;;;;74.87;41.73;;;7.50;99.90;;;;;;5090346;28;20219;-58
2022/05/02 05:51:32;;;;;;;70.70;39.93;;;7.60;99.90;;;;;;5092036;28;20206;-59
2022/05/02 05:54:31;;;;;;;68.70;39.67;;;7.80;99.90;;;;;;5089419;28;20221;-59
2022/05/02 05:57:06;;;;;;;69.33;39.23;;;7.90;99.90;;;;;;5079701;28;20204;-59
2022/05/02 05:59:48;;;;;;;66.93;38.50;;;8.00;99.90;;;;;;5090824;28;20574;-58
2022/05/02 06:02:20;;;;;;;67.17;38.30;;;8.20;99.90;;;;;;5084721;28;20191;-58
2022/05/02 06:04:50;;;;;;;66.13;36.43;;;8.40;99.90;;;;;;5088939;28;20190;-58
2022/05/02 06:07:22;;;;;;;59.37;36.40;;;8.50;99.90;;;;;;5084959;28;20745;-59
2022/05/02 06:09:56;;;;;;;59.87;35.33;;;8.70;99.90;;;;;;5082862;28;20212;-58
2022/05/02 06:12:25;;;;;;;57.23;35.70;;;8.80;99.90;;;;;;5091724;28;20210;-58
2022/05/02 06:20:34;;;;;;;52.90;33.83;;;9.40;99.90;;;;;;5092087;28;20203;-58
2022/05/02 06:23:03;;;;;;;51.47;32.83;;;9.60;99.90;;;;;;5090134;28;20199;-59
2022/05/02 06:25:34;;;;;;;52.37;32.17;;;9.70;99.90;;;;;;5093289;28;20203;-58
2022/05/02 06:28:04;;;;;;;55.87;31.80;;;9.90;99.90;;;;;;5097428;28;20199;-58
2022/05/02 06:30:36;;;;;;;47.63;30.60;;;10.00;99.90;;;;;;5096111;28;20194;-58
2022/05/02 06:33:10;;;;;;;54.63;30.97;;;10.30;99.90;;;;;;5080463;28;20227;-58
2022/05/02 06:35:56;;;;;;;48.27;28.63;;;10.60;99.90;;;;;;5085280;28;20199;-58
2022/05/02 06:38:38;;;;;;;47.03;29.40;;;10.70;99.90;;;;;;5079712;28;20282;-58
2022/05/02 06:41:20;;;;;;;46.93;29.53;;;10.90;99.90;;;;;;5094535;28;20196;-58
2022/05/02 06:44:01;;;;;;;45.93;28.30;;;11.00;99.90;;;;;;5125703;27;20203;-58
2022/05/02 06:46:38;;;;;;;50.07;30.23;;;11.10;99.90;;;;;;5099756;27;20294;-59
2022/05/02 06:49:12;;;;;;;45.47;28.50;;;11.30;99.90;;;;;;5079344;28;20239;-59
2022/05/02 06:51:42;;;;;;;44.17;27.03;;;11.60;99.90;;;;;;5085183;28;20206;-58
2022/05/02 06:54:31;;;;;;;43.60;28.93;;;11.70;99.90;;;;;;5083983;28;20191;-58
2022/05/02 06:57:10;;;;;;;40.67;28.23;;;12.00;99.90;;;;;;5078355;28;20670;-59
2022/05/02 06:59:41;;;;;;;37.90;26.67;;;12.20;99.90;;;;;;5082192;28;20295;-59
2022/05/02 07:02:39;;;;;;;40.87;27.63;;;12.40;99.90;;;;;;5096779;27;20227;-59
2022/05/02 07:05:11;;;;;;;46.40;27.93;;;12.50;99.90;;;;;;5084218;28;20204;-58
2022/05/02 07:08:05;;;;;;;39.60;26.83;;;12.70;99.90;;;;;;5089959;28;20196;-58
2022/05/02 07:10:34;;;;;;;35.37;25.80;;;12.70;99.90;;;;;;5088005;28;20246;-59
2022/05/02 07:13:25;;;;;;;39.07;26.13;;;12.80;99.90;;;;;;5117531;27;20197;-59
2022/05/02 07:16:08;;;;;;;38.97;25.60;;;13.10;99.90;;;;;;5092089;28;20267;-59
2022/05/02 07:18:50;;;;;;;36.93;24.80;;;13.30;99.90;;;;;;5083789;28;20672;-59
2022/05/02 07:21:39;;;;;;;38.53;24.80;;;13.60;99.90;;;;;;5085174;28;20279;-59
2022/05/02 07:24:49;;;;;;;33.53;23.67;;;13.50;99.90;;;;;;5081253;28;20194;-59
2022/05/02 07:27:28;;;;;;;39.33;24.33;;;13.60;99.90;;;;;;5075778;28;20344;-59
2022/05/02 07:29:59;;;;;;;33.57;23.40;;;13.80;99.90;;;;;;5089831;28;20230;-60
2022/05/02 07:32:30;;;;;;;29.30;22.33;;;13.80;99.90;;;;;;5086312;28;20283;-59
2022/05/02 07:35:00;;;;;;;33.17;23.40;;;14.20;99.90;;;;;;5082853;28;20206;-59
2022/05/02 07:37:32;;;;;;;31.57;21.67;;;14.40;99.90;;;;;;5103996;27;20283;-59
2022/05/02 07:40:01;;;;;;;29.97;21.43;;;14.50;99.90;;;;;;5090738;28;20184;-59
2022/05/02 07:42:37;;;;;;;31.13;22.00;;;14.70;99.90;;;;;;5077995;28;20203;-58
2022/05/02 07:45:10;;;;;;;28.30;21.27;;;15.00;99.90;;;;;;5086542;28;20199;-59
2022/05/02 07:47:43;;;;;;;32.33;21.00;;;15.20;99.90;;;;;;5092638;28;20199;-59
2022/05/02 07:50:12;;;;;;;25.93;20.17;;;15.60;99.90;;;;;;5087069;28;20208;-60
2022/05/02 07:52:42;;;;;;;28.70;20.03;;;16.00;99.90;;;;;;5078824;28;20315;-59
2022/05/02 07:55:11;;;;;;;24.30;18.63;;;16.00;99.90;;;;;;5119780;28;20195;-59
2022/05/02 07:57:43;;;;;;;25.47;18.00;;;16.20;99.90;;;;;;5085743;28;20713;-60
2022/05/02 08:00:14;;;;;;;22.30;18.27;;;16.20;99.90;;;;;;5109725;28;20180;-59
2022/05/02 08:02:44;;;;;;;21.17;16.83;;;16.30;99.90;;;;;;5085399;28;20328;-58
2022/05/02 08:05:12;;;;;;;22.03;17.77;;;16.50;99.90;;;;;;5112125;28;20732;-57
2022/05/02 08:07:43;;;;;;;23.13;16.43;;;16.60;99.90;;;;;;5085574;28;20199;-57
2022/05/02 08:10:36;;;;;;;23.60;16.93;;;16.60;99.90;;;;;;5086506;28;20247;-57
2022/05/02 08:13:14;;;;;;;21.43;15.87;;;16.80;99.90;;;;;;5088710;28;20192;-57
2022/05/02 08:15:51;;;;;;;20.53;15.60;;;17.20;99.90;;;;;;5085357;28;20191;-57
2022/05/02 08:18:42;;;;;;;20.30;15.90;;;17.20;99.90;;;;;;5087838;28;20233;-57
2022/05/02 08:21:18;;;;;;;25.93;15.80;;;17.50;99.90;;;;;;5081486;28;20199;-58
2022/05/02 08:27:22;;;;;;;20.13;15.30;;;18.00;99.90;;;;;;5086034;28;20209;-57
2022/05/02 08:30:08;;;;;;;18.73;14.57;;;18.00;99.90;;;;;;5086057;28;20305;-57
2022/05/02 08:32:55;;;;;;;18.63;14.03;;;18.20;99.90;;;;;;5085236;28;20237;-59
2022/05/02 08:35:36;;;;;;;15.60;13.20;;;18.20;99.90;;;;;;5085555;28;20185;-59
2022/05/02 08:38:33;;;;;;;15.10;13.50;;;18.60;99.90;;;;;;5086533;28;20216;-59
2022/05/02 08:41:58;;;;;;;15.70;12.37;;;19.20;99.90;;;;;;5088088;28;20228;-60
2022/05/02 08:45:11;;;;;;;15.63;13.10;;;19.40;99.90;;;;;;5087184;28;20202;-58
2022/05/02 08:48:25;;;;;;;16.33;12.43;;;19.80;99.90;;;;;;5089360;28;20278;-58
2022/05/02 08:51:31;;;;;;;13.53;11.40;;;20.00;99.90;;;;;;5091039;28;20227;-57
2022/05/02 08:54:44;;;;;;;16.33;11.77;;;20.40;99.90;;;;;;5094701;28;20584;-58
2022/05/02 08:57:44;;;;;;;13.13;11.13;;;20.90;99.90;;;;;;5081702;28;20687;-58
2022/05/02 09:00:25;;;;;;;12.40;11.10;;;21.10;99.90;;;;;;5119872;27;20279;-57
2022/05/02 09:03:44;;;;;;;13.43;11.13;;;20.90;99.90;;;;;;5099351;28;20274;-58
2022/05/02 09:06:41;;;;;;;13.13;10.93;;;21.20;99.90;;;;;;5081103;28;20193;-58
2022/05/02 09:09:37;;;;;;;14.13;11.13;;;21.50;99.90;;;;;;5091255;28;20227;-57
2022/05/02 09:12:36;;;;;;;11.30;9.05;;;21.60;99.90;;;;;;5072370;28;20201;-57
2022/05/02 09:15:24;;;;;;;11.27;10.07;;;22.20;99.90;;;;;;5083653;28;20635;-58
2022/05/02 09:18:29;;;;;;;12.57;10.13;;;22.60;99.50;;;;;;5093394;28;20203;-58
2022/05/02 09:20:58;;;;;;;15.73;10.57;;;22.90;98.70;;;;;;5098944;28;20587;-58
2022/05/02 09:24:20;;;;;;;12.60;9.50;;;22.80;98.80;;;;;;5093992;28;20201;-59
2022/05/02 09:27:11;;;;;;;11.50;8.27;;;23.00;97.90;;;;;;5087508;28;20265;-58
2022/05/02 09:30:14;;;;;;;13.88;8.70;;;23.10;96.70;;;;;;5092847;28;20197;-58
2022/05/02 09:32:48;;;;;;;12.13;8.85;;;23.20;95.30;;;;;;5127991;27;20232;-58
2022/05/02 09:35:19;;;;;;;10.25;9.23;;;23.40;95.10;;;;;;5090133;28;20202;-59
2022/05/02 09:37:57;;;;;;;11.40;10.15;;;23.30;96.10;;;;;;5120777;27;20198;-58
2022/05/02 09:40:37;;;;;;;9.90;8.85;;;23.60;95.20;;;;;;5092436;28;20264;-58
2022/05/02 09:49:59;;;;;;;11.55;9.40;;;23.70;92.70;;;;;;5091838;28;20693;-59
2022/05/02 09:52:35;;;;;;;10.48;9.38;;;24.00;94.00;;;;;;5088407;28;20235;-58
2022/05/02 09:58:32;;;;;;;10.82;8.60;;;24.20;91.40;;;;;;5087388;28;20200;-59
2022/05/02 10:01:11;;;;;;;12.77;9.30;;;24.50;92.90;;;;;;5088062;28;20224;-58
2022/05/02 10:03:48;;;;;;;12.32;9.77;;;24.60;91.90;;;;;;5088588;28;20643;-59
2022/05/02 10:06:27;;;;;;;15.63;10.98;;;25.00;93.70;;;;;;5083477;28;20276;-59
2022/05/02 10:09:00;;;;;;;11.90;9.35;;;25.50;91.90;;;;;;5114359;27;20227;-58
2022/05/02 10:11:53;;;;;;;10.50;9.40;;;25.30;90.70;;;;;;5101610;27;20221;-59
2022/05/02 10:14:51;;;;;;;9.07;8.18;;;25.20;90.30;;;;;;5080677;28;20277;-58
2022/05/02 10:17:47;;;;;;;9.38;7.95;;;25.00;87.90;;;;;;5084333;28;20189;-58
2022/05/02 10:20:18;;;;;;;9.63;8.32;;;24.90;90.60;;;;;;5073686;28;20684;-58
2022/05/02 10:23:04;;;;;;;8.68;7.88;;;24.90;87.60;;;;;;5088942;28;20293;-58
2022/05/02 10:25:41;;;;;;;9.75;8.75;;;24.60;89.20;;;;;;5088186;28;20733;-58
2022/05/02 10:28:33;;;;;;;12.68;8.90;;;24.90;90.80;;;;;;5087942;28;20189;-57
2022/05/02 10:31:09;;;;;;;13.15;9.13;;;25.20;86.70;;;;;;5086180;28;20676;-57
2022/05/02 10:33:44;;;;;;;11.65;9.05;;;24.50;86.80;;;;;;5090886;28;20590;-57
2022/05/02 10:36:13;;;;;;;10.10;8.95;;;24.10;88.20;;;;;;5094429;28;20258;-58
2022/05/02 10:38:51;;;;;;;10.23;8.35;;;24.30;89.50;;;;;;5088409;28;21003;-58
2022/05/02 10:41:28;;;;;;;13.85;9.50;;;24.40;87.80;;;;;;5088712;28;20669;-58
2022/05/02 10:44:02;;;;;;;10.32;8.40;;;24.70;88.90;;;;;;5086683;28;20933;-58
2022/05/02 10:46:34;;;;;;;7.65;6.95;;;25.30;90.30;;;;;;5091644;28;20244;-58
2022/05/02 10:49:06;;;;;;;9.32;8.40;;;25.50;88.70;;;;;;5088174;28;20199;-58
2022/05/02 10:51:46;;;;;;;11.52;8.23;;;25.40;86.10;;;;;;5092025;28;20306;-58
2022/05/02 10:54:29;;;;;;;10.63;8.40;;;25.40;89.60;;;;;;5087869;28;20271;-58
2022/05/02 10:57:03;;;;;;;13.07;8.88;;;25.40;86.10;;;;;;5089632;28;20267;-58
2022/05/02 10:59:37;;;;;;;11.68;8.25;;;25.50;86.00;;;;;;5089856;28;20701;-58
2022/05/02 11:02:40;;;;;;;11.43;9.75;;;24.90;86.80;;;;;;5071336;28;20206;-58
2022/05/02 11:05:12;;;;;;;11.45;9.57;;;24.80;88.10;;;;;;5087116;28;20729;-58
2022/05/02 11:07:55;;;;;;;8.07;7.38;;;24.60;88.60;;;;;;5118877;27;20196;-58
2022/05/02 11:10:28;;;;;;;8.40;7.60;;;24.60;88.00;;;;;;5088469;28;20186;-58
2022/05/02 11:13:10;;;;;;;9.60;8.60;;;24.50;85.70;;;;;;5094547;28;20604;-58
2022/05/02 11:15:54;;;;;;;9.53;8.57;;;24.00;86.70;;;;;;5093296;28;20223;-58
2022/05/02 11:21:35;;;;;;;10.27;9.17;;;23.70;84.70;;;;;;5101155;28;20278;-57
2022/05/02 11:24:33;;;;;;;11.17;9.97;;;24.20;87.60;;;;;;5123536;27;20194;-58
2022/05/02 11:27:16;;;;;;;13.70;9.73;;;23.90;88.60;;;;;;5087535;28;20198;-58
2022/05/02 11:29:55;;;;;;;13.47;11.13;;;23.60;87.00;;;;;;5094719;28;20244;-57
2022/05/02 11:32:28;;;;;;;12.13;10.33;;;23.80;88.80;;;;;;5091209;28;20210;-58
2022/05/02 11:35:05;;;;;;;12.70;11.40;;;23.90;85.70;;;;;;5081896;28;20203;-57
2022/05/02 11:37:38;;;;;;;15.60;11.30;;;23.30;86.80;;;;;;5087917;28;20191;-58
2022/05/02 11:40:11;;;;;;;13.53;9.83;;;22.40;90.20;;;;;;5088805;28;20208;-58
2022/05/02 11:42:43;;;;;;;13.40;10.17;;;22.40;87.00;;;;;;5084455;28;20216;-58
2022/05/02 11:45:13;;;;;;;10.67;9.17;;;22.40;88.30;;;;;;5087958;28;20303;-58
2022/05/02 11:47:56;;;;;;;11.10;10.00;;;22.60;90.50;;;;;;5081229;28;20582;-58
2022/05/02 11:50:27;;;;;;;12.97;9.37;;;22.90;90.80;;;;;;5088795;28;20241;-58
2022/05/02 11:52:56;;;;;;;19.47;13.37;;;23.20;91.00;;;;;;5092659;28;20229;-57
2022/05/02 11:55:29;;;;;;;15.40;12.60;;;22.80;88.40;;;;;;5087592;28;20201;-58
2022/05/02 11:58:07;;;;;;;14.53;10.37;;;22.80;92.80;;;;;;5078557;28;20668;-58
2022/05/02 12:00:37;;;;;;;16.93;11.40;;;22.70;88.30;;;;;;5092525;28;20201;-58
2022/05/02 12:03:15;;;;;;;14.93;10.27;;;22.50;88.00;;;;;;5087644;28;20191;-58
2022/05/02 12:05:51;;;;;;;9.93;8.73;;;22.30;89.50;;;;;;5089477;28;20222;-57
2022/05/02 12:08:26;;;;;;;11.37;9.40;;;22.10;87.70;;;;;;5084805;28;20199;-57
2022/05/02 12:11:06;;;;;;;12.67;10.57;;;22.10;88.40;;;;;;5098623;28;20658;-57
2022/05/02 12:13:36;;;;;;;12.90;11.30;;;22.10;89.60;;;;;;5095920;28;20578;-57
2022/05/02 12:16:09;;;;;;;18.47;11.67;;;22.30;91.20;;;;;;5086999;28;20191;-59
2022/05/02 12:18:46;;;;;;;16.37;11.77;;;22.60;92.40;;;;;;5094641;28;20203;-58
2022/05/02 12:21:23;;;;;;;16.20;11.20;;;22.50;90.00;;;;;;5094579;28;20202;-58
2022/05/02 12:23:53;;;;;;;14.70;10.97;;;22.30;90.90;;;;;;5098490;28;20199;-58
2022/05/02 12:26:23;;;;;;;15.70;9.93;;;22.50;91.10;;;;;;5095538;28;20207;-58
2022/05/02 12:28:55;;;;;;;14.47;10.93;;;22.20;90.60;;;;;;5083707;28;21035;-58
2022/05/02 12:31:27;;;;;;;12.17;10.10;;;22.10;90.50;;;;;;5098832;28;20329;-59
2022/05/02 12:33:58;;;;;;;12.90;10.20;;;21.80;91.80;;;;;;5098930;28;20201;-60
2022/05/02 12:36:36;;;;;;;14.67;10.37;;;21.60;91.40;;;;;;5093768;28;20272;-58
2022/05/02 12:39:06;;;;;;;12.17;10.53;;;21.80;92.00;;;;;;5091683;28;20559;-58
2022/05/02 12:41:45;;;;;;;14.07;11.03;;;21.90;90.40;;;;;;5097579;28;20194;-58
2022/05/02 12:44:16;;;;;;;16.73;11.27;;;21.90;91.60;;;;;;5089702;28;20286;-57
2022/05/02 12:46:46;;;;;;;14.60;10.17;;;21.90;90.10;;;;;;5096179;28;20299;-58
2022/05/02 12:49:26;;;;;;;11.73;10.20;;;22.10;90.80;;;;;;5091532;28;20613;-58
2022/05/02 12:51:57;;;;;;;13.47;10.30;;;22.20;90.40;;;;;;5097659;28;20596;-57
2022/05/02 12:54:27;;;;;;;16.10;12.60;;;22.20;91.30;;;;;;5095849;28;20210;-58
2022/05/02 13:02:42;;;;;;;14.00;11.67;;;22.30;94.50;;;;;;5092826;28;20208;-57
2022/05/02 13:05:13;;;;;;;14.27;11.83;;;22.40;90.30;;;;;;5092482;28;20939;-57
2022/05/02 13:07:48;;;;;;;12.77;11.27;;;22.10;89.90;;;;;;5090028;28;20256;-58
2022/05/02 13:10:20;;;;;;;14.53;10.83;;;22.10;91.60;;;;;;5096102;28;20567;-58
2022/05/02 13:12:58;;;;;;;16.40;12.60;;;22.20;89.90;;;;;;5100651;28;20209;-58
2022/05/02 13:15:28;;;;;;;15.27;12.17;;;21.60;88.60;;;;;;5101940;28;20187;-57
2022/05/02 13:18:00;;;;;;;15.20;12.23;;;21.30;90.50;;;;;;5092903;28;20199;-58
2022/05/02 13:20:59;;;;;;;15.87;11.33;;;21.30;91.00;;;;;;5094041;28;20195;-57
2022/05/02 13:23:39;;;;;;;15.20;12.23;;;21.80;92.30;;;;;;5100032;28;20195;-57
2022/05/02 13:26:48;;;;;;;15.33;12.73;;;22.20;92.80;;;;;;5086023;28;20205;-58
2022/05/02 13:29:28;;;;;;;13.67;12.27;;;21.80;91.70;;;;;;5104191;27;20210;-58
2022/05/02 13:32:01;;;;;;;16.23;11.73;;;21.50;91.40;;;;;;5096796;28;20215;-58
2022/05/02 13:34:55;;;;;;;19.17;13.00;;;21.30;92.00;;;;;;5089714;28;20195;-58
2022/05/02 13:37:32;;;;;;;15.20;12.93;;;21.40;93.20;;;;;;5088018;28;20238;-58
2022/05/02 13:40:08;;;;;;;17.17;12.23;;;21.70;91.80;;;;;;5085818;28;20199;-57
2022/05/02 13:42:55;;;;;;;18.83;13.47;;;22.00;91.90;;;;;;5095511;28;20202;-58
2022/05/02 13:45:35;;;;;;;15.10;12.40;;;22.20;91.70;;;;;;5090243;28;20195;-57
2022/05/02 13:48:23;;;;;;;13.83;11.70;;;21.90;91.50;;;;;;5089073;28;20198;-58
2022/05/02 13:50:57;;;;;;;14.00;12.10;;;21.40;92.30;;;;;;5100452;28;20286;-58